Terminal Aerodrome Forecast
Issued by NWS

Home | Current Version | Previous Version | Text Only | Print | Product List | Glossary On
Versions: 1 2 3 4 5 6 7 8 9 10 11 12 13 14 15 16
070
FTUS44 KCRP 301741
TAFALI
TAF
KALI 301741Z 3018/0118 07008KT P6SM BKN250
     FM302300 12010KT P6SM FEW050 BKN250
     FM010300 11006KT P6SM FEW012 BKN250
     FM010800 11005KT 4SM BR SCT008
      TEMPO 0108/0112 1/2SM FG OVC005
     FM011500 12008KT 6SM HZ BKN015=

USA.gov is the U.S. government's official web portal to all federal, state and local government web resources and services.